createdAt,value
2023-02-24T00:02:54.843Z,80.3
2023-02-24T00:31:40.127Z,74.7
2023-02-24T00:37:56.102Z,66.2
2023-02-24T00:43:49.097Z,62.9
2023-02-24T00:50:15.642Z,64.2
2023-02-24T01:03:01.935Z,64.2
2023-02-24T01:09:43.362Z,64.6
2023-02-24T01:28:46.090Z,62.8
2023-02-24T01:41:47.906Z,70
2023-02-24T02:00:32.850Z,66.2
2023-02-24T02:07:03.217Z,74.1
2023-02-24T02:13:28.421Z,78.7
2023-02-24T02:19:52.319Z,97.1
2023-02-24T02:31:46.056Z,126.4
2023-02-24T02:37:51.274Z,139.2
2023-02-24T02:43:55.084Z,131.7
2023-02-24T03:16:34.603Z,57.9
2023-02-24T03:23:04.006Z,54.2
2023-02-24T03:42:35.764Z,58.8
2023-02-24T03:48:51.892Z,64.1
2023-02-24T03:55:07.870Z,75.4
2023-02-24T04:14:27.098Z,85.5
2023-02-24T04:20:47.865Z,86.1
2023-02-24T04:47:05.087Z,83.1
2023-02-24T04:53:09.410Z,86.1
2023-02-24T05:05:59.468Z,98.8
2023-02-24T05:12:11.061Z,101.7
2023-02-24T05:18:13.904Z,132.2
2023-02-24T05:30:36.462Z,148.9
2023-02-24T05:36:35.651Z,140.2
2023-02-24T05:56:32.580Z,119.7
2023-02-24T06:02:26.309Z,123
2023-02-24T06:08:38.313Z,117.2
2023-02-24T06:14:51.362Z,108
2023-02-24T06:20:48.523Z,105.8
2023-02-24T06:27:02.986Z,120.1
2023-02-24T06:33:10.557Z,123.2
2023-02-24T06:39:03.142Z,128.7
2023-02-24T06:45:07.978Z,128.8
2023-02-24T06:51:09.011Z,114.2
2023-02-24T06:57:06.372Z,105.2
2023-02-24T07:03:00.950Z,101.3
2023-02-24T07:08:56.262Z,110.9
2023-02-24T07:14:53.438Z,100.2
2023-02-24T07:20:44.133Z,95.7
2023-02-24T07:26:35.091Z,91.4
2023-02-24T07:32:29.439Z,81.7
2023-02-24T07:38:34.571Z,77.9
2023-02-24T07:44:25.118Z,70.7
2023-02-24T07:50:16.803Z,64.4
2023-02-24T07:56:10.717Z,57.6
2023-02-24T08:02:04.104Z,57.8
2023-02-24T08:08:08.783Z,51.8
2023-02-24T08:14:10.477Z,52
2023-02-24T08:20:00.749Z,54.3
2023-02-24T08:25:56.008Z,50.1
2023-02-24T08:31:51.667Z,38.6
2023-02-24T08:37:45.106Z,40.3
2023-02-24T08:43:36.454Z,46.6
2023-02-24T08:55:27.779Z,41.8
2023-02-24T09:01:20.134Z,35.1
2023-02-24T09:07:17.168Z,34.9
2023-02-24T09:13:07.746Z,37.2
2023-02-24T09:18:59.052Z,42.6
2023-02-24T09:24:49.564Z,36.9
2023-02-24T09:30:45.921Z,33.9
2023-02-24T09:36:34.538Z,34
2023-02-24T09:42:27.205Z,35.6
2023-02-24T09:48:50.088Z,36.1
2023-02-24T09:54:40.081Z,32.8
2023-02-24T10:00:32.159Z,35.2
2023-02-24T10:06:26.960Z,39.3
2023-02-24T10:12:22.725Z,40.8
2023-02-24T10:18:15.872Z,41.4
2023-02-24T10:24:22.267Z,39.4
2023-02-24T10:30:14.070Z,42.3
2023-02-24T10:36:08.845Z,37.7
2023-02-24T10:42:21.573Z,30.4
2023-02-24T10:48:45.408Z,33.7
2023-02-24T11:00:45.708Z,25.7
2023-02-24T11:06:39.968Z,25.3
2023-02-24T11:12:31.157Z,22.4
2023-02-24T11:18:24.117Z,20.5
2023-02-24T11:24:14.986Z,22.8
2023-02-24T11:30:07.585Z,19.9
2023-02-24T11:36:04.338Z,19.2
2023-02-24T11:42:14.832Z,19.1
2023-02-24T11:48:07.849Z,19.8
2023-02-24T11:54:05.271Z,17.8
2023-02-24T11:59:57.066Z,19.8
2023-02-24T12:12:07.940Z,18.2
2023-02-24T12:18:18.292Z,20.5
2023-02-24T12:24:51.099Z,17.1
2023-02-24T12:37:05.674Z,17.8
2023-02-24T12:44:31.055Z,23.2
2023-02-24T12:57:44.307Z,16.2
2023-02-24T13:03:50.633Z,17.3
2023-02-24T13:15:48.522Z,14.5
2023-02-24T13:27:41.521Z,15
2023-02-24T13:33:42.046Z,14.5
2023-02-24T13:39:38.950Z,16.9
2023-02-24T13:45:37.690Z,12.8
2023-02-24T13:51:41.645Z,11.8
2023-02-24T14:46:38.989Z,14.3
2023-02-24T14:53:20.341Z,14.4
2023-02-24T15:18:07.889Z,18.3
2023-02-24T15:29:53.174Z,14.5
2023-02-24T15:35:46.881Z,15.5
2023-02-24T15:43:01.828Z,15.6
2023-02-24T15:55:07.134Z,13.1
2023-02-24T16:19:30.261Z,17.6
2023-02-24T16:25:45.454Z,14
2023-02-24T16:31:37.057Z,15.3
2023-02-24T16:37:28.074Z,17.1
2023-02-24T16:43:18.099Z,14.6
2023-02-24T16:49:14.506Z,15.7
2023-02-24T16:55:06.539Z,15.6
2023-02-24T17:01:02.348Z,15.3
2023-02-24T17:06:55.905Z,14.2
2023-02-24T17:12:45.588Z,12.1
2023-02-24T17:18:48.860Z,13.5
2023-02-24T17:24:39.489Z,9.8
2023-02-24T17:30:31.733Z,10.6
2023-02-24T17:36:23.706Z,9.6
2023-02-24T17:42:17.464Z,10.8
2023-02-24T17:48:06.371Z,11.1
2023-02-24T17:54:00.489Z,14
2023-02-24T17:59:54.591Z,12.9
2023-02-24T18:05:47.109Z,15.6
2023-02-24T18:11:41.077Z,16.8
2023-02-24T18:17:39.580Z,19.5
2023-02-24T18:23:30.807Z,23.7
2023-02-24T18:29:25.755Z,21.7
2023-02-24T18:35:16.462Z,24.5
2023-02-24T18:41:06.762Z,27.3
2023-02-24T18:47:07.407Z,26
2023-02-24T18:53:06.773Z,27.8
2023-02-24T18:58:54.406Z,29.8
2023-02-24T19:04:45.082Z,35.8
2023-02-24T19:10:43.731Z,34.2
2023-02-24T19:16:44.222Z,36.8
2023-02-24T19:22:42.128Z,42.5
2023-02-24T19:29:13.082Z,37.7
2023-02-24T19:35:13.175Z,34.9
2023-02-24T19:41:11.254Z,37.4
2023-02-24T19:47:05.496Z,38.7
2023-02-24T19:53:04.307Z,34
2023-02-24T19:58:54.129Z,32
2023-02-24T20:04:43.456Z,30.4
2023-02-24T20:10:35.899Z,37.2
2023-02-24T20:16:32.657Z,23.6
2023-02-24T20:22:23.025Z,19.3
2023-02-24T20:28:12.111Z,16.8
2023-02-24T20:34:03.525Z,25.4
2023-02-24T20:39:53.666Z,29.3
2023-02-24T20:45:48.472Z,45.1
2023-02-24T20:51:43.295Z,16.7
2023-02-24T20:57:34.541Z,26.6
2023-02-24T21:03:24.611Z,23.4
2023-02-24T21:09:17.933Z,29
2023-02-24T21:15:08.631Z,21
2023-02-24T21:21:05.600Z,20.4
2023-02-24T21:26:54.684Z,19.3
2023-02-24T21:32:48.772Z,21.2
2023-02-24T21:38:43.037Z,25
2023-02-24T21:51:10.804Z,21.8
2023-02-24T21:57:16.520Z,21.5
2023-02-24T22:03:14.552Z,24
2023-02-24T22:15:14.127Z,21.1
2023-02-24T22:21:22.434Z,19.6
2023-02-24T22:34:08.276Z,20.6
2023-02-24T22:40:00.094Z,21.2
2023-02-24T22:46:05.640Z,22
2023-02-24T22:52:01.898Z,24.4
2023-02-24T22:57:54.719Z,27.6
2023-02-24T23:03:55.170Z,26.1
2023-02-24T23:09:49.508Z,29.6
2023-02-24T23:22:09.753Z,27.5
2023-02-24T23:41:25.059Z,28.9
2023-02-24T23:47:24.676Z,24.4
2023-02-24T23:59:31.441Z,25
